createdAt,value
2019-02-05T00:00:48.227Z,2.20
2019-02-05T00:03:21.437Z,2.20
2019-02-05T00:05:51.080Z,2.20
2019-02-05T00:08:20.371Z,2.20
2019-02-05T00:10:49.661Z,2.20
2019-02-05T00:13:19.416Z,2.20
2019-02-05T00:15:48.750Z,2.20
2019-02-05T00:18:18.020Z,2.20
2019-02-05T00:20:47.350Z,2.10
2019-02-05T00:23:16.918Z,2.10
2019-02-05T00:25:46.201Z,2.10
2019-02-05T00:28:15.427Z,2.00
2019-02-05T00:31:03.736Z,2.00
2019-02-05T00:33:33.020Z,2.00
2019-02-05T00:36:02.246Z,2.00
2019-02-05T00:38:31.827Z,2.00
2019-02-05T00:41:01.034Z,2.00
2019-02-05T00:43:30.301Z,2.00
2019-02-05T00:46:00.007Z,1.90
2019-02-05T00:48:29.225Z,1.80
2019-02-05T00:50:58.700Z,1.80
2019-02-05T00:53:28.637Z,1.70
2019-02-05T00:55:57.852Z,1.70
2019-02-05T00:58:27.061Z,1.70
2019-02-05T01:00:56.286Z,1.70
2019-02-05T01:03:26.063Z,1.70
2019-02-05T01:05:55.373Z,1.80
2019-02-05T01:08:25.346Z,1.80
2019-02-05T01:10:54.689Z,1.80
2019-02-05T01:13:23.979Z,1.80
2019-02-05T01:15:53.287Z,1.80
2019-02-05T01:18:22.875Z,1.80
2019-02-05T01:20:52.469Z,1.80
2019-02-05T01:23:21.772Z,1.80
2019-02-05T01:25:52.638Z,1.80
2019-02-05T01:28:22.141Z,1.80
2019-02-05T01:30:51.344Z,1.90
2019-02-05T01:33:20.699Z,1.90
2019-02-05T01:35:50.487Z,1.90
2019-02-05T01:38:19.678Z,1.90
2019-02-05T01:40:48.988Z,1.90
2019-02-05T01:43:18.213Z,1.90
2019-02-05T01:45:47.743Z,1.90
2019-02-05T01:48:17.111Z,1.90
2019-02-05T01:50:46.643Z,1.80
2019-02-05T01:53:15.996Z,1.80
2019-02-05T01:55:48.993Z,1.80
2019-02-05T01:58:19.240Z,1.80
2019-02-05T02:00:48.870Z,1.70
2019-02-05T02:03:18.390Z,1.70
2019-02-05T02:05:47.904Z,1.70
2019-02-05T02:08:17.176Z,1.80
2019-02-05T02:10:46.400Z,1.70
2019-02-05T02:13:15.692Z,1.70
2019-02-05T02:15:44.995Z,1.60
2019-02-05T02:18:14.516Z,1.50
2019-02-05T02:20:43.692Z,1.40
2019-02-05T02:23:12.943Z,1.20
2019-02-05T02:25:42.115Z,1.20
2019-02-05T02:28:11.397Z,1.10
2019-02-05T02:30:40.852Z,1.00
2019-02-05T02:33:10.007Z,0.90
2019-02-05T02:35:39.190Z,0.80
2019-02-05T02:38:09.416Z,0.80
2019-02-05T02:40:38.589Z,0.80
2019-02-05T02:43:08.171Z,0.70
2019-02-05T02:45:37.381Z,0.60
2019-02-05T02:48:06.822Z,0.60
2019-02-05T02:50:36.302Z,0.50
2019-02-05T02:53:05.553Z,0.50
2019-02-05T02:55:35.051Z,0.60
2019-02-05T02:58:04.687Z,0.70
2019-02-05T03:00:34.118Z,0.80
2019-02-05T03:03:03.236Z,0.90
2019-02-05T03:05:32.514Z,1.00
2019-02-05T03:08:01.690Z,1.10
2019-02-05T03:10:31.490Z,1.20
2019-02-05T03:13:00.817Z,1.30
2019-02-05T03:15:30.358Z,1.40
2019-02-05T03:17:59.911Z,1.40
2019-02-05T03:20:29.251Z,1.50
2019-02-05T03:22:58.461Z,1.50
2019-02-05T03:25:27.950Z,1.60
2019-02-05T03:27:57.440Z,1.60
2019-02-05T03:30:27.191Z,1.60
2019-02-05T03:32:56.701Z,1.60
2019-02-05T03:35:26.411Z,1.70
2019-02-05T03:37:56.234Z,1.70
2019-02-05T03:41:04.629Z,1.70
2019-02-05T03:43:34.837Z,1.70
2019-02-05T03:46:10.426Z,1.70
2019-02-05T03:48:40.620Z,1.70
2019-02-05T03:51:42.064Z,1.70
2019-02-05T03:54:33.718Z,1.60
2019-02-05T03:57:30.450Z,1.60
2019-02-05T04:00:09.766Z,1.60
2019-02-05T04:03:04.455Z,1.60
2019-02-05T04:05:52.504Z,1.60
2019-02-05T04:09:05.727Z,1.50
2019-02-05T04:12:22.774Z,1.40
2019-02-05T04:15:49.798Z,1.40
2019-02-05T04:18:50.347Z,1.40
2019-02-05T04:22:01.963Z,1.40
2019-02-05T04:24:56.038Z,1.50
2019-02-05T04:28:00.656Z,1.60
2019-02-05T04:31:05.656Z,1.60
2019-02-05T04:34:23.000Z,1.70
2019-02-05T04:37:27.452Z,1.70
2019-02-05T04:40:26.254Z,1.70
2019-02-05T04:43:32.370Z,1.80
2019-02-05T04:46:34.439Z,1.80
2019-02-05T04:49:32.466Z,1.80
2019-02-05T04:52:31.933Z,1.90
2019-02-05T04:55:48.344Z,1.90
2019-02-05T04:58:59.675Z,1.90
2019-02-05T05:01:54.541Z,1.90
2019-02-05T05:05:26.250Z,1.90
2019-02-05T05:08:35.673Z,1.90
2019-02-05T05:11:05.123Z,1.90
2019-02-05T05:13:34.758Z,1.90
2019-02-05T05:16:04.511Z,1.90
2019-02-05T05:18:34.453Z,1.90
2019-02-05T05:21:04.582Z,1.90
2019-02-05T05:23:34.918Z,1.90
2019-02-05T05:26:04.370Z,1.90
2019-02-05T05:28:34.529Z,1.90
2019-02-05T05:31:04.271Z,1.90
2019-02-05T05:33:35.102Z,1.90
2019-02-05T05:36:04.851Z,1.80
2019-02-05T05:38:34.759Z,1.80
2019-02-05T05:41:04.346Z,1.90
2019-02-05T05:43:34.078Z,1.90
2019-02-05T05:46:03.340Z,1.90
2019-02-05T05:48:33.485Z,1.90
2019-02-05T05:51:02.765Z,1.90
2019-02-05T05:53:32.748Z,1.80
2019-02-05T05:56:02.139Z,1.80
2019-02-05T05:58:32.306Z,1.80
2019-02-05T06:01:01.619Z,1.80
2019-02-05T06:03:31.282Z,1.80
2019-02-05T06:06:00.584Z,1.70
2019-02-05T06:08:30.502Z,1.80
2019-02-05T06:11:00.131Z,1.70
2019-02-05T06:13:29.462Z,1.70
2019-02-05T06:15:59.096Z,1.70
2019-02-05T06:18:28.492Z,1.70
2019-02-05T06:20:57.935Z,1.70
2019-02-05T06:23:27.631Z,1.70
2019-02-05T06:25:56.919Z,1.70
2019-02-05T06:28:34.366Z,1.70
2019-02-05T06:30:57.221Z,1.70
2019-02-05T06:33:26.940Z,1.70
2019-02-05T06:35:56.262Z,1.70
2019-02-05T06:38:25.563Z,1.80
2019-02-05T06:40:55.351Z,1.70
2019-02-05T06:43:24.683Z,1.70
2019-02-05T06:45:54.210Z,1.70
2019-02-05T06:48:23.358Z,1.70
2019-02-05T06:50:52.631Z,1.70
2019-02-05T06:53:21.859Z,1.70
2019-02-05T06:55:51.072Z,1.70
2019-02-05T06:58:20.372Z,1.70
2019-02-05T07:00:49.715Z,1.80
2019-02-05T07:03:19.163Z,1.70
2019-02-05T07:05:48.331Z,1.70
2019-02-05T07:08:17.586Z,1.70
2019-02-05T07:10:46.724Z,1.80
2019-02-05T07:13:15.928Z,1.80
2019-02-05T07:15:45.087Z,1.80
2019-02-05T07:18:14.221Z,1.80
2019-02-05T07:20:43.441Z,1.90
2019-02-05T07:23:12.905Z,1.90
2019-02-05T07:25:42.146Z,1.90
2019-02-05T07:28:11.647Z,1.90
2019-02-05T07:30:40.815Z,2.00
2019-02-05T07:33:09.943Z,2.00
2019-02-05T07:35:39.544Z,2.00
2019-02-05T07:38:08.677Z,2.00
2019-02-05T07:40:38.283Z,2.00
2019-02-05T07:43:07.522Z,2.00
2019-02-05T07:45:37.759Z,2.10
2019-02-05T07:48:07.417Z,2.10
2019-02-05T07:50:36.645Z,2.20
2019-02-05T07:53:06.290Z,2.20
2019-02-05T07:55:35.774Z,2.30
2019-02-05T07:58:05.262Z,2.40
2019-02-05T08:00:34.592Z,2.40
2019-02-05T08:03:04.514Z,2.40
2019-02-05T08:05:34.222Z,2.50
2019-02-05T08:08:03.666Z,2.50
2019-02-05T08:10:33.202Z,2.60
2019-02-05T08:13:02.338Z,2.60
2019-02-05T08:15:33.123Z,2.70
2019-02-05T08:18:02.342Z,2.70
2019-02-05T08:20:31.741Z,2.80
2019-02-05T08:23:00.954Z,2.80
2019-02-05T08:25:30.749Z,2.90
2019-02-05T08:28:01.118Z,2.90
2019-02-05T08:30:33.059Z,2.90
2019-02-05T08:33:02.376Z,3.00
2019-02-05T08:35:31.640Z,3.10
2019-02-05T08:38:00.950Z,3.10
2019-02-05T08:40:30.129Z,3.20
2019-02-05T08:43:00.143Z,3.20
2019-02-05T08:45:30.654Z,3.30
2019-02-05T08:47:59.938Z,3.40
2019-02-05T08:50:29.477Z,3.50
2019-02-05T08:52:58.831Z,3.50
2019-02-05T08:55:30.796Z,3.60
2019-02-05T08:58:01.476Z,3.70
2019-02-05T09:00:33.305Z,3.80
2019-02-05T09:03:03.149Z,3.80
2019-02-05T09:05:32.944Z,3.90
2019-02-05T09:08:02.324Z,4.00
2019-02-05T09:10:33.320Z,4.10
2019-02-05T09:13:02.611Z,4.10
2019-02-05T09:15:32.268Z,4.10
2019-02-05T09:18:02.020Z,4.10
2019-02-05T09:20:31.320Z,4.20
2019-02-05T09:23:01.163Z,4.10
2019-02-05T09:25:30.911Z,4.10
2019-02-05T09:28:00.207Z,4.20
2019-02-05T09:30:31.388Z,4.20
2019-02-05T09:33:02.478Z,4.20
2019-02-05T09:35:31.947Z,4.20
2019-02-05T09:38:01.384Z,4.20
2019-02-05T09:40:32.115Z,4.20
2019-02-05T09:43:02.401Z,4.20
2019-02-05T09:45:32.458Z,4.20
2019-02-05T09:48:02.538Z,4.20
2019-02-05T09:50:43.815Z,4.30
2019-02-05T09:53:02.686Z,4.40
2019-02-05T09:55:32.185Z,4.40
2019-02-05T09:58:01.627Z,4.50
2019-02-05T10:00:33.285Z,4.50
2019-02-05T10:03:02.600Z,4.50
2019-02-05T10:05:32.492Z,4.60
2019-02-05T10:08:01.987Z,4.70
2019-02-05T10:10:31.528Z,4.80
2019-02-05T10:13:01.041Z,4.90
2019-02-05T10:15:32.952Z,5.00
2019-02-05T10:18:03.284Z,5.00
2019-02-05T10:20:32.985Z,5.00
2019-02-05T10:23:04.744Z,5.10
2019-02-05T10:25:34.370Z,5.10
2019-02-05T10:28:03.616Z,5.10
2019-02-05T10:30:41.015Z,5.20
2019-02-05T10:33:10.682Z,5.40
2019-02-05T10:35:40.482Z,5.50
2019-02-05T10:38:09.758Z,5.60
2019-02-05T10:40:39.058Z,5.70
2019-02-05T10:43:08.475Z,5.70
2019-02-05T10:45:38.087Z,5.90
2019-02-05T10:48:09.232Z,6.00
2019-02-05T10:50:38.900Z,6.00
2019-02-05T10:53:08.144Z,6.10
2019-02-05T10:55:37.424Z,6.20
2019-02-05T10:58:07.374Z,6.40
2019-02-05T11:00:36.649Z,6.40
2019-02-05T11:03:07.792Z,6.40
2019-02-05T11:05:37.190Z,6.50
2019-02-05T11:08:06.790Z,6.70
2019-02-05T11:10:36.419Z,6.80
2019-02-05T11:13:06.707Z,6.70
2019-02-05T11:15:35.999Z,6.70
2019-02-05T11:18:07.563Z,6.90
2019-02-05T11:20:36.822Z,7.00
2019-02-05T11:23:06.574Z,7.00
2019-02-05T11:25:35.799Z,7.00
2019-02-05T11:28:05.385Z,6.90
2019-02-05T11:30:36.765Z,7.00
2019-02-05T11:33:05.927Z,7.10
2019-02-05T11:35:35.588Z,7.30
2019-02-05T11:38:06.100Z,7.50
2019-02-05T11:40:35.919Z,7.50
2019-02-05T11:43:05.676Z,7.70
2019-02-05T11:45:35.473Z,7.90
2019-02-05T11:48:06.501Z,8.10
2019-02-05T11:50:35.916Z,8.30
2019-02-05T11:53:05.191Z,9.00
2019-02-05T11:55:34.810Z,9.50
2019-02-05T11:58:06.054Z,9.60
2019-02-05T12:00:44.915Z,9.70
2019-02-05T12:03:16.547Z,9.90
2019-02-05T12:05:47.339Z,10.40
2019-02-05T12:31:34.803Z,9.10
2019-02-05T12:34:04.217Z,9.80
2019-02-05T12:36:33.939Z,10.20
2019-02-05T12:43:32.064Z,10.10
2019-02-05T12:46:29.403Z,9.90
2019-02-05T12:49:00.065Z,9.70
2019-02-05T12:51:50.147Z,9.50
2019-02-05T12:54:19.416Z,9.40
2019-02-05T12:56:48.950Z,10.00
2019-02-05T12:59:18.202Z,10.60
2019-02-05T13:01:47.402Z,10.50
2019-02-05T13:04:16.598Z,9.80
2019-02-05T13:06:45.842Z,9.40
2019-02-05T13:09:15.021Z,9.10
2019-02-05T13:11:44.218Z,8.60
2019-02-05T13:14:13.988Z,8.20
2019-02-05T13:16:43.145Z,8.00
2019-02-05T13:19:12.562Z,8.00
2019-02-05T13:21:41.737Z,7.90
2019-02-05T13:24:11.057Z,7.60
2019-02-05T13:26:40.972Z,7.60
2019-02-05T13:29:10.438Z,7.70
2019-02-05T13:31:39.644Z,7.80
2019-02-05T13:34:09.548Z,8.00
2019-02-05T13:36:38.993Z,8.20
2019-02-05T13:39:12.891Z,8.30
2019-02-05T13:41:42.130Z,8.50
2019-02-05T13:44:11.319Z,8.60
2019-02-05T13:46:40.686Z,8.80
2019-02-05T13:49:09.831Z,9.10
2019-02-05T13:51:39.611Z,9.20
2019-02-05T13:54:09.457Z,9.00
2019-02-05T13:56:39.626Z,8.80
2019-02-05T13:59:09.119Z,8.70
2019-02-05T14:01:38.243Z,8.50
2019-02-05T14:04:08.255Z,8.40
2019-02-05T14:06:37.611Z,8.40
2019-02-05T14:09:12.145Z,8.40
2019-02-05T14:11:41.367Z,8.40
2019-02-05T14:18:55.606Z,8.70
2019-02-05T14:33:00.430Z,9.20
2019-02-05T14:56:28.376Z,7.90
2019-02-05T15:02:57.752Z,7.60
2019-02-05T15:05:27.375Z,7.30
2019-02-05T15:16:09.375Z,7.00
2019-02-05T16:00:43.367Z,5.70
2019-02-05T16:15:20.560Z,5.40
2019-02-05T16:22:49.011Z,5.30
2019-02-05T16:32:47.644Z,5.10
2019-02-05T16:35:32.851Z,5.00
2019-02-05T16:37:59.370Z,4.90
2019-02-05T16:40:32.823Z,4.80
2019-02-05T16:43:08.615Z,4.60
2019-02-05T16:45:38.030Z,4.50
2019-02-05T16:48:07.628Z,4.30
2019-02-05T16:50:39.778Z,4.10
2019-02-05T16:53:10.833Z,4.00
2019-02-05T16:55:40.201Z,3.80
2019-02-05T16:58:09.965Z,3.70
2019-02-05T17:00:39.417Z,3.60
2019-02-05T17:03:08.913Z,3.50
2019-02-05T17:05:39.104Z,3.40
2019-02-05T17:08:09.174Z,3.30
2019-02-05T17:10:38.746Z,3.30
2019-02-05T17:13:11.466Z,3.30
2019-02-05T17:15:40.210Z,3.30
2019-02-05T17:18:10.655Z,3.30
2019-02-05T17:20:39.906Z,3.30
2019-02-05T17:23:09.828Z,3.30
2019-02-05T17:25:39.515Z,3.30
2019-02-05T17:28:08.827Z,3.40
2019-02-05T17:30:39.219Z,3.40
2019-02-05T17:33:08.927Z,3.50
2019-02-05T17:35:38.434Z,3.50
2019-02-05T17:38:09.280Z,3.50
2019-02-05T17:40:38.643Z,3.50
2019-02-05T17:43:08.175Z,3.60
2019-02-05T17:45:39.202Z,3.60
2019-02-05T17:48:14.599Z,3.60
2019-02-05T17:50:44.278Z,3.70
2019-02-05T17:53:13.554Z,3.70
2019-02-05T17:55:42.772Z,3.70
2019-02-05T17:58:12.367Z,3.70
2019-02-05T18:01:03.722Z,3.70
2019-02-05T18:03:32.944Z,3.60
2019-02-05T18:06:02.162Z,3.60
2019-02-05T18:08:31.706Z,3.60
2019-02-05T18:11:01.296Z,3.70
2019-02-05T18:13:31.928Z,3.70
2019-02-05T18:16:19.759Z,3.80
2019-02-05T18:18:48.960Z,3.80
2019-02-05T18:21:19.178Z,3.90
2019-02-05T18:23:48.414Z,3.90
2019-02-05T18:26:18.319Z,4.00
2019-02-05T18:28:47.654Z,4.00
2019-02-05T18:31:16.881Z,4.10
2019-02-05T18:33:46.141Z,4.10
2019-02-05T18:36:15.573Z,4.10
2019-02-05T18:38:45.159Z,4.10
2019-02-05T18:41:14.742Z,4.10
2019-02-05T18:43:44.022Z,4.10
2019-02-05T18:46:13.335Z,4.10
2019-02-05T18:48:42.651Z,4.20
2019-02-05T18:51:12.326Z,4.20
2019-02-05T18:53:41.671Z,4.20
2019-02-05T18:56:11.426Z,4.20
2019-02-05T18:58:40.923Z,4.10
2019-02-05T19:01:10.823Z,4.10
2019-02-05T19:03:40.120Z,4.10
2019-02-05T19:06:09.357Z,4.00
2019-02-05T19:08:38.580Z,4.00
2019-02-05T19:11:09.022Z,4.10
2019-02-05T19:13:38.619Z,4.10
2019-02-05T19:16:08.400Z,4.10
2019-02-05T19:18:37.654Z,4.10
2019-02-05T19:21:06.939Z,4.20
2019-02-05T19:23:36.217Z,4.20
2019-02-05T19:26:12.701Z,4.20
2019-02-05T19:28:43.443Z,4.20
2019-02-05T19:31:25.620Z,4.20
2019-02-05T19:33:54.800Z,4.20
2019-02-05T19:36:24.447Z,4.20
2019-02-05T19:38:53.685Z,4.20
2019-02-05T19:41:22.960Z,4.20
2019-02-05T19:43:52.091Z,4.20
2019-02-05T19:46:39.350Z,4.20
2019-02-05T19:49:33.645Z,4.20
2019-02-05T19:52:02.982Z,4.20
2019-02-05T19:54:32.747Z,4.20
2019-02-05T19:57:07.490Z,4.20
2019-02-05T19:59:37.248Z,4.20
2019-02-05T20:02:07.177Z,4.20
2019-02-05T20:04:36.473Z,4.30
2019-02-05T20:07:05.811Z,4.30
2019-02-05T20:09:35.363Z,4.30
2019-02-05T20:12:05.107Z,4.30
2019-02-05T20:14:34.442Z,4.20
2019-02-05T20:17:05.059Z,4.20
2019-02-05T20:19:34.382Z,4.20
2019-02-05T20:22:04.081Z,4.10
2019-02-05T20:24:33.363Z,4.10
2019-02-05T20:27:02.526Z,4.10
2019-02-05T20:29:31.920Z,4.00
2019-02-05T20:32:01.171Z,3.90
2019-02-05T20:34:30.515Z,3.80
2019-02-05T20:36:59.802Z,3.80
2019-02-05T20:39:29.227Z,3.80
2019-02-05T20:41:58.804Z,3.80
2019-02-05T20:44:28.089Z,3.80
2019-02-05T20:46:57.584Z,3.80
2019-02-05T20:49:27.360Z,3.80
2019-02-05T20:52:00.898Z,3.80
2019-02-05T20:54:30.150Z,3.80
2019-02-05T20:56:59.786Z,3.80
2019-02-05T20:59:30.423Z,3.90
2019-02-05T21:02:00.109Z,3.80
2019-02-05T21:04:30.039Z,3.90
2019-02-05T21:06:59.856Z,3.90
2019-02-05T21:09:29.268Z,3.90
2019-02-05T21:11:58.508Z,3.90
2019-02-05T21:14:27.731Z,3.90
2019-02-05T21:17:04.878Z,3.80
2019-02-05T21:19:34.750Z,3.80
2019-02-05T21:22:04.238Z,3.70
2019-02-05T21:24:33.793Z,3.70
2019-02-05T21:27:03.347Z,3.70
2019-02-05T21:29:32.581Z,3.70
2019-02-05T21:32:02.139Z,3.60
2019-02-05T21:34:31.691Z,3.60
2019-02-05T21:37:00.986Z,3.60
2019-02-05T21:39:30.637Z,3.60
2019-02-05T21:42:01.245Z,3.60
2019-02-05T21:44:37.144Z,3.60
2019-02-05T21:47:04.690Z,3.50
2019-02-05T21:49:34.235Z,3.50
2019-02-05T21:52:03.871Z,3.40
2019-02-05T21:54:33.228Z,3.30
2019-02-05T21:57:02.759Z,3.20
2019-02-05T21:59:32.037Z,3.20
2019-02-05T22:02:06.883Z,3.10
2019-02-05T22:04:35.224Z,3.10
2019-02-05T22:07:04.634Z,3.00
2019-02-05T22:09:34.606Z,3.00
2019-02-05T22:12:04.506Z,3.10
2019-02-05T22:14:33.870Z,3.10
2019-02-05T22:17:03.452Z,3.20
2019-02-05T22:19:32.715Z,3.20
2019-02-05T22:22:02.076Z,3.30
2019-02-05T22:24:31.930Z,3.30
2019-02-05T22:27:03.423Z,3.30
2019-02-05T22:29:32.752Z,3.30
2019-02-05T22:32:01.995Z,3.30
2019-02-05T22:34:38.991Z,3.30
2019-02-05T22:37:03.619Z,3.40
2019-02-05T22:39:33.337Z,3.40
2019-02-05T22:42:03.099Z,3.40
2019-02-05T22:44:32.466Z,3.40
2019-02-05T22:47:07.254Z,3.40
2019-02-05T22:49:39.155Z,3.40
2019-02-05T22:52:08.514Z,3.40
2019-02-05T22:54:38.119Z,3.40
2019-02-05T22:57:07.533Z,3.30
2019-02-05T22:59:37.042Z,3.30
2019-02-05T23:02:06.760Z,3.20
2019-02-05T23:05:21.035Z,3.00
2019-02-05T23:07:50.863Z,2.90
2019-02-05T23:11:13.436Z,2.70
2019-02-05T23:13:42.733Z,2.60
2019-02-05T23:16:16.307Z,2.50
2019-02-05T23:18:46.439Z,2.40
2019-02-05T23:21:15.907Z,2.30
2019-02-05T23:23:52.799Z,2.20
2019-02-05T23:26:27.215Z,2.10
2019-02-05T23:28:56.832Z,2.00
2019-02-05T23:31:26.089Z,1.90
2019-02-05T23:33:55.329Z,1.90
2019-02-05T23:36:24.575Z,1.80
2019-02-05T23:39:11.659Z,1.80
2019-02-05T23:41:56.301Z,1.80
2019-02-05T23:44:25.833Z,1.80
2019-02-05T23:46:55.475Z,1.80
2019-02-05T23:49:24.761Z,1.80
2019-02-05T23:51:54.318Z,1.90
2019-02-05T23:54:26.321Z,1.90
2019-02-05T23:56:55.604Z,2.00
2019-02-05T23:59:24.899Z,2.00
